Time;durP1;ratioP1;P1;durP2;ratioP2;P2;SDS_P1;SDS_P2;PMS_P1;PMS_P2;Temp;Humidity;BMP_temperature;BMP_pressure;BME280_temperature;BME280_humidity;BME280_pressure;Samples;Min_cycle;Max_cycle;Signal;HPM_P1;HPM_P2
2023/10/11 00:00:37;;;;;;;10.17;7.17;;;;;;;;;;5051234;28;20188;-82
2023/10/11 00:03:14;;;;;;;9.97;6.73;;;;;;;;;;5056564;28;20187;-82
2023/10/11 00:05:43;;;;;;;11.00;6.83;;;;;;;;;;5067563;28;20284;-82
2023/10/11 00:08:10;;;;;;;9.77;6.50;;;;;;;;;;5054165;28;20179;-83
2023/10/11 00:10:42;;;;;;;13.93;6.93;;;;;;;;;;5039553;28;20196;-83
2023/10/11 00:13:10;;;;;;;9.20;6.90;;;;;;;;;;5069014;28;20206;-82
2023/10/11 00:15:36;;;;;;;10.47;6.63;;;;;;;;;;5050033;28;20213;-82
2023/10/11 00:18:02;;;;;;;13.83;6.40;;;;;;;;;;5045073;28;20183;-83
2023/10/11 00:20:31;;;;;;;14.70;7.40;;;;;;;;;;5038623;28;20196;-82
2023/10/11 00:22:59;;;;;;;11.03;6.40;;;;;;;;;;5049492;28;20270;-82
2023/10/11 00:25:25;;;;;;;12.70;7.10;;;;;;;;;;5026514;28;20195;-82
2023/10/11 00:27:58;;;;;;;9.27;6.77;;;;;;;;;;5042826;28;20203;-83
2023/10/11 00:30:24;;;;;;;10.77;6.90;;;;;;;;;;5048214;28;20187;-82
2023/10/11 00:32:52;;;;;;;8.80;6.40;;;;;;;;;;5054193;28;20179;-83
2023/10/11 00:35:18;;;;;;;9.87;6.70;;;;;;;;;;5044845;28;20203;-83
2023/10/11 00:37:47;;;;;;;11.80;6.70;;;;;;;;;;5054757;28;20172;-83
2023/10/11 00:40:14;;;;;;;13.70;6.43;;;;;;;;;;5046561;28;20183;-82
2023/10/11 00:42:41;;;;;;;13.40;6.67;;;;;;;;;;5056657;28;20191;-82
2023/10/11 00:45:08;;;;;;;10.00;6.43;;;;;;;;;;5026501;28;20232;-82
2023/10/11 00:47:40;;;;;;;11.00;6.73;;;;;;;;;;5031692;28;20223;-82
2023/10/11 00:50:14;;;;;;;9.90;6.30;;;;;;;;;;5042672;28;20248;-82
2023/10/11 00:52:41;;;;;;;10.03;6.73;;;;;;;;;;5028622;28;20219;-82
2023/10/11 00:55:16;;;;;;;10.33;6.77;;;;;;;;;;5021073;28;20208;-83
2023/10/11 00:57:42;;;;;;;12.80;6.50;;;;;;;;;;5032787;28;20188;-82
2023/10/11 01:00:13;;;;;;;9.87;7.00;;;;;;;;;;5045728;28;20187;-82
2023/10/11 01:02:39;;;;;;;10.50;6.70;;;;;;;;;;5017201;28;20200;-82
2023/10/11 01:05:06;;;;;;;8.33;6.53;;;;;;;;;;5021558;28;20280;-82
2023/10/11 01:07:32;;;;;;;13.73;6.70;;;;;;;;;;5028473;28;20299;-82
2023/10/11 01:09:58;;;;;;;9.47;6.80;;;;;;;;;;5032629;28;20180;-83
2023/10/11 01:12:24;;;;;;;14.43;6.90;;;;;;;;;;5032545;28;20188;-83
2023/10/11 01:14:59;;;;;;;10.77;6.50;;;;;;;;;;5032737;28;20187;-83
2023/10/11 01:17:32;;;;;;;11.23;6.50;;;;;;;;;;5030963;28;20185;-82
2023/10/11 01:19:59;;;;;;;10.60;6.80;;;;;;;;;;5044586;28;20279;-82
2023/10/11 01:22:27;;;;;;;11.60;7.03;;;;;;;;;;5048761;28;20278;-82
2023/10/11 01:24:54;;;;;;;12.43;6.43;;;;;;;;;;5029278;28;20181;-82
2023/10/11 01:27:25;;;;;;;10.50;6.93;;;;;;;;;;5036209;28;20197;-82
2023/10/11 01:29:54;;;;;;;10.43;6.93;;;;;;;;;;5043287;28;20192;-82
2023/10/11 01:32:20;;;;;;;11.27;6.57;;;;;;;;;;5029982;28;20209;-82
2023/10/11 01:34:46;;;;;;;10.50;6.70;;;;;;;;;;5013786;28;20248;-82
2023/10/11 01:37:12;;;;;;;10.70;6.20;;;;;;;;;;5029242;28;20177;-82
2023/10/11 01:39:38;;;;;;;10.57;6.67;;;;;;;;;;5018043;28;20204;-82
2023/10/11 01:42:04;;;;;;;12.80;7.00;;;;;;;;;;5034532;28;20260;-82
2023/10/11 01:44:33;;;;;;;9.07;6.60;;;;;;;;;;5020514;28;20239;-82
2023/10/11 01:47:00;;;;;;;13.10;7.13;;;;;;;;;;5025171;28;20223;-82
2023/10/11 01:49:26;;;;;;;10.23;6.80;;;;;;;;;;5056357;28;20210;-82
2023/10/11 01:51:52;;;;;;;10.37;6.70;;;;;;;;;;5046291;28;20184;-82
2023/10/11 01:54:22;;;;;;;10.50;6.93;;;;;;;;;;5050797;28;20198;-82
2023/10/11 01:56:48;;;;;;;11.53;7.07;;;;;;;;;;5054932;28;20195;-82
2023/10/11 01:59:15;;;;;;;11.17;7.30;;;;;;;;;;5075200;28;20261;-82
2023/10/11 02:01:55;;;;;;;9.03;6.70;;;;;;;;;;5046971;28;20195;-82
2023/10/11 02:04:21;;;;;;;12.70;7.13;;;;;;;;;;5058783;28;20261;-82
2023/10/11 02:06:49;;;;;;;13.00;6.90;;;;;;;;;;5050223;28;20299;-82
2023/10/11 02:09:16;;;;;;;8.67;6.93;;;;;;;;;;5059038;28;20229;-82
2023/10/11 02:11:42;;;;;;;15.87;7.57;;;;;;;;;;5041386;28;20192;-82
2023/10/11 02:14:09;;;;;;;10.50;7.20;;;;;;;;;;5042104;28;20273;-82
2023/10/11 02:16:36;;;;;;;12.07;7.53;;;;;;;;;;5058278;28;20187;-82
2023/10/11 02:19:05;;;;;;;12.07;7.10;;;;;;;;;;5078703;28;20194;-82
2023/10/11 02:21:31;;;;;;;11.43;7.27;;;;;;;;;;5059194;28;20187;-82
2023/10/11 02:23:59;;;;;;;13.17;6.97;;;;;;;;;;5042073;28;20252;-82
2023/10/11 02:26:34;;;;;;;9.97;7.30;;;;;;;;;;5058523;28;20272;-82
2023/10/11 02:29:00;;;;;;;11.73;7.30;;;;;;;;;;5043017;28;20203;-82
2023/10/11 02:31:31;;;;;;;12.73;7.73;;;;;;;;;;5058783;28;20175;-82
2023/10/11 02:34:12;;;;;;;10.10;7.33;;;;;;;;;;5043028;28;20179;-82
2023/10/11 02:36:38;;;;;;;11.40;7.20;;;;;;;;;;5067815;28;20210;-82
2023/10/11 02:39:09;;;;;;;12.37;7.67;;;;;;;;;;5056539;28;20183;-82
2023/10/11 02:41:41;;;;;;;11.87;7.87;;;;;;;;;;5042026;28;20243;-82
2023/10/11 02:44:10;;;;;;;13.23;7.47;;;;;;;;;;5035906;28;20278;-82
2023/10/11 02:46:36;;;;;;;11.57;7.20;;;;;;;;;;5057473;28;20254;-81
2023/10/11 02:49:06;;;;;;;15.77;7.67;;;;;;;;;;5039264;28;20203;-82
2023/10/11 02:51:35;;;;;;;11.60;7.30;;;;;;;;;;5038446;28;20180;-82
2023/10/11 02:54:04;;;;;;;11.27;7.43;;;;;;;;;;5054455;28;20184;-82
2023/10/11 02:56:46;;;;;;;11.27;7.43;;;;;;;;;;5035459;28;20198;-82
2023/10/11 02:59:12;;;;;;;13.57;8.00;;;;;;;;;;5060415;28;20175;-82
2023/10/11 03:01:41;;;;;;;13.70;8.20;;;;;;;;;;5051729;28;20289;-82
2023/10/11 03:04:15;;;;;;;11.73;7.70;;;;;;;;;;5050036;28;20187;-82
2023/10/11 03:06:47;;;;;;;13.30;7.73;;;;;;;;;;5057304;28;20207;-82
2023/10/11 03:09:13;;;;;;;12.20;7.33;;;;;;;;;;5037363;28;20192;-81
2023/10/11 03:11:45;;;;;;;13.07;7.87;;;;;;;;;;5045317;28;20279;-82
2023/10/11 03:14:15;;;;;;;11.43;7.53;;;;;;;;;;5065770;28;20215;-82
2023/10/11 03:16:42;;;;;;;12.43;8.40;;;;;;;;;;5062551;28;20183;-82
2023/10/11 03:19:11;;;;;;;13.53;8.37;;;;;;;;;;5050081;28;20188;-82
2023/10/11 03:21:38;;;;;;;10.50;8.03;;;;;;;;;;5054087;28;20194;-83
2023/10/11 03:24:05;;;;;;;13.10;8.30;;;;;;;;;;5052881;28;20188;-82
2023/10/11 03:26:37;;;;;;;13.47;8.07;;;;;;;;;;5044701;28;20216;-82
2023/10/11 03:29:04;;;;;;;11.63;7.93;;;;;;;;;;5047093;28;20191;-82
2023/10/11 03:31:31;;;;;;;13.90;8.10;;;;;;;;;;5049124;28;20187;-83
2023/10/11 03:34:10;;;;;;;12.13;8.17;;;;;;;;;;5029028;28;20191;-82
2023/10/11 03:36:43;;;;;;;10.53;7.20;;;;;;;;;;5055832;28;20210;-82
2023/10/11 03:39:09;;;;;;;14.43;8.00;;;;;;;;;;5036938;28;20333;-82
2023/10/11 03:41:36;;;;;;;10.13;8.27;;;;;;;;;;5036205;28;20190;-82
2023/10/11 03:44:15;;;;;;;13.03;8.23;;;;;;;;;;5052027;28;20197;-82
2023/10/11 03:46:47;;;;;;;16.00;9.00;;;;;;;;;;5076666;28;20291;-83
2023/10/11 03:51:43;;;;;;;11.13;8.67;;;;;;;;;;5068331;28;20282;-82
2023/10/11 03:54:13;;;;;;;13.33;8.30;;;;;;;;;;5053298;28;20172;-82
2023/10/11 03:56:45;;;;;;;12.97;8.50;;;;;;;;;;5057900;28;20182;-82
2023/10/11 03:59:12;;;;;;;11.90;8.20;;;;;;;;;;5041136;28;20182;-82
2023/10/11 04:01:38;;;;;;;15.43;8.37;;;;;;;;;;5060192;28;20207;-82
2023/10/11 04:04:05;;;;;;;11.63;9.03;;;;;;;;;;5039873;28;20194;-82
2023/10/11 04:06:34;;;;;;;12.93;8.63;;;;;;;;;;5045513;28;20213;-82
2023/10/11 04:09:02;;;;;;;15.87;9.30;;;;;;;;;;5055236;28;20264;-82
2023/10/11 04:11:37;;;;;;;11.47;9.37;;;;;;;;;;5056635;28;20198;-83
2023/10/11 04:14:03;;;;;;;11.50;8.57;;;;;;;;;;5041130;28;20209;-82
2023/10/11 04:16:29;;;;;;;18.13;9.00;;;;;;;;;;5036597;28;20187;-82
2023/10/11 04:19:00;;;;;;;13.10;8.97;;;;;;;;;;5041665;28;20184;-82
2023/10/11 04:22:12;;;;;;;13.63;8.97;;;;;;;;;;5040978;28;20184;-82
2023/10/11 04:24:13;;;;;;;11.53;9.00;;;;;;;;;;5034792;28;20195;-82
2023/10/11 04:26:40;;;;;;;14.13;8.33;;;;;;;;;;5056139;28;20218;-82
2023/10/11 04:29:06;;;;;;;11.90;8.93;;;;;;;;;;5075695;28;20179;-82
2023/10/11 04:31:38;;;;;;;13.20;9.00;;;;;;;;;;5065673;28;20229;-83
2023/10/11 04:34:11;;;;;;;13.63;9.07;;;;;;;;;;5049275;28;20180;-83
2023/10/11 04:36:43;;;;;;;14.40;8.75;;;;;;;;;;5075762;28;20409;-82
2023/10/11 04:39:16;;;;;;;12.63;8.90;;;;;;;;;;5066504;28;20187;-82
2023/10/11 04:41:52;;;;;;;15.13;9.27;;;;;;;;;;5040494;28;20211;-82
2023/10/11 04:44:18;;;;;;;13.57;8.67;;;;;;;;;;5046979;28;20228;-82
2023/10/11 04:46:57;;;;;;;11.90;9.00;;;;;;;;;;5059406;28;20226;-82
2023/10/11 04:49:24;;;;;;;13.50;9.27;;;;;;;;;;5055909;28;20244;-82
2023/10/11 04:51:51;;;;;;;12.27;9.17;;;;;;;;;;5059155;28;20183;-82
2023/10/11 04:54:18;;;;;;;12.97;9.60;;;;;;;;;;5039623;28;20367;-82
2023/10/11 04:59:16;;;;;;;11.67;8.57;;;;;;;;;;5076557;28;20183;-83
2023/10/11 05:04:27;;;;;;;11.93;9.13;;;;;;;;;;5063167;28;20187;-82
2023/10/11 05:06:53;;;;;;;10.43;9.40;;;;;;;;;;5048954;28;20211;-82
2023/10/11 05:14:40;;;;;;;17.80;9.70;;;;;;;;;;5074173;28;20176;-82
2023/10/11 05:19:39;;;;;;;16.10;9.60;;;;;;;;;;5077569;28;20179;-82
2023/10/11 05:22:08;;;;;;;14.17;9.77;;;;;;;;;;5059701;28;20209;-82
2023/10/11 05:27:47;;;;;;;14.40;9.90;;;;;;;;;;5074010;28;20242;-82
2023/10/11 05:51:29;;;;;;;14.50;10.00;;;;;;;;;;5062126;28;20190;-82
2023/10/11 05:53:56;;;;;;;14.90;10.03;;;;;;;;;;5058731;28;20178;-83
2023/10/11 05:56:24;;;;;;;17.43;10.30;;;;;;;;;;5059230;28;20187;-82
2023/10/11 05:58:52;;;;;;;18.07;10.53;;;;;;;;;;5052244;28;20203;-82
2023/10/11 06:01:21;;;;;;;16.50;9.93;;;;;;;;;;5075793;28;20186;-82
2023/10/11 06:03:48;;;;;;;14.93;10.50;;;;;;;;;;5079042;28;20178;-82
2023/10/11 06:06:32;;;;;;;16.10;10.70;;;;;;;;;;5062236;28;20213;-82
2023/10/11 06:09:01;;;;;;;14.37;10.37;;;;;;;;;;5046872;28;20228;-82
2023/10/11 06:11:29;;;;;;;17.93;10.40;;;;;;;;;;5042912;28;20184;-82
2023/10/11 06:13:56;;;;;;;15.50;10.53;;;;;;;;;;5043260;28;20183;-81
2023/10/11 06:16:22;;;;;;;15.07;10.17;;;;;;;;;;5042293;28;20201;-82
2023/10/11 06:19:15;;;;;;;13.63;10.63;;;;;;;;;;5041953;28;20175;-82
2023/10/11 06:21:56;;;;;;;16.13;10.87;;;;;;;;;;5058900;28;20179;-82
2023/10/11 06:24:22;;;;;;;16.37;10.87;;;;;;;;;;5043844;28;20187;-82
2023/10/11 06:29:22;;;;;;;19.07;11.10;;;;;;;;;;5055076;28;20183;-82
2023/10/11 06:31:48;;;;;;;17.87;11.30;;;;;;;;;;5038300;28;20262;-82
2023/10/11 06:34:22;;;;;;;16.33;10.97;;;;;;;;;;5045590;28;20195;-82
2023/10/11 06:36:48;;;;;;;17.17;11.00;;;;;;;;;;5058389;28;20199;-81
2023/10/11 06:42:13;;;;;;;17.10;11.50;;;;;;;;;;5038073;28;20183;-82
2023/10/11 06:44:47;;;;;;;18.13;11.07;;;;;;;;;;5045582;28;20191;-82
2023/10/11 06:47:13;;;;;;;16.30;11.40;;;;;;;;;;5047931;28;20210;-82
2023/10/11 06:49:44;;;;;;;16.17;11.53;;;;;;;;;;5054845;28;20240;-82
2023/10/11 06:52:25;;;;;;;18.03;11.37;;;;;;;;;;5057402;28;20184;-83
2023/10/11 06:55:07;;;;;;;14.47;11.27;;;;;;;;;;5071963;28;20187;-83
2023/10/11 06:57:39;;;;;;;18.53;11.57;;;;;;;;;;5057138;28;20194;-83
2023/10/11 07:00:12;;;;;;;18.43;11.60;;;;;;;;;;5048496;28;20203;-83
2023/10/11 07:02:39;;;;;;;18.23;12.23;;;;;;;;;;5054245;28;20279;-82
2023/10/11 07:05:14;;;;;;;18.50;11.73;;;;;;;;;;5038477;28;20191;-83
2023/10/11 07:07:40;;;;;;;19.47;11.00;;;;;;;;;;5068795;28;20206;-83
2023/10/11 07:10:28;;;;;;;17.33;11.60;;;;;;;;;;5041933;28;20183;-83
2023/10/11 07:13:05;;;;;;;15.33;11.30;;;;;;;;;;5060825;28;20191;-83
2023/10/11 07:15:42;;;;;;;17.73;11.77;;;;;;;;;;5048836;28;20218;-83
2023/10/11 07:18:20;;;;;;;17.83;11.90;;;;;;;;;;5048968;28;20251;-83
2023/10/11 07:20:57;;;;;;;16.37;11.80;;;;;;;;;;5057610;28;20175;-83
2023/10/11 07:23:24;;;;;;;18.77;12.27;;;;;;;;;;5063967;28;20183;-83
2023/10/11 07:26:00;;;;;;;18.87;11.60;;;;;;;;;;5040875;28;20180;-83
2023/10/11 07:28:35;;;;;;;16.80;12.10;;;;;;;;;;5057266;28;20182;-83
2023/10/11 07:31:03;;;;;;;19.53;11.33;;;;;;;;;;5057424;28;20238;-83
2023/10/11 07:33:29;;;;;;;21.47;12.67;;;;;;;;;;5057505;28;20249;-83
2023/10/11 07:35:56;;;;;;;16.17;12.03;;;;;;;;;;5040522;28;20268;-83
2023/10/11 07:38:22;;;;;;;20.50;12.67;;;;;;;;;;5056827;28;20186;-83
2023/10/11 07:40:52;;;;;;;17.37;11.93;;;;;;;;;;5039928;28;20221;-83
2023/10/11 07:43:19;;;;;;;17.30;13.00;;;;;;;;;;5041179;28;20312;-82
2023/10/11 07:45:48;;;;;;;17.27;13.23;;;;;;;;;;5036407;28;20246;-83
2023/10/11 07:48:16;;;;;;;20.23;13.60;;;;;;;;;;5056892;28;20194;-82
2023/10/11 07:50:42;;;;;;;16.57;12.37;;;;;;;;;;5048311;28;20267;-82
2023/10/11 07:53:13;;;;;;;19.47;12.73;;;;;;;;;;5023575;28;20326;-82
2023/10/11 07:55:40;;;;;;;20.70;14.10;;;;;;;;;;5064606;28;20190;-81
2023/10/11 07:58:08;;;;;;;18.93;13.57;;;;;;;;;;5053672;28;20203;-82
2023/10/11 08:00:41;;;;;;;17.93;13.30;;;;;;;;;;5046139;28;20180;-81
2023/10/11 08:03:08;;;;;;;18.90;13.17;;;;;;;;;;5053529;28;20247;-82
2023/10/11 08:05:45;;;;;;;19.57;13.17;;;;;;;;;;5020725;28;20208;-83
2023/10/11 08:08:13;;;;;;;20.10;13.60;;;;;;;;;;5053323;28;20184;-83
2023/10/11 08:10:44;;;;;;;23.00;13.93;;;;;;;;;;5053620;28;20238;-83
2023/10/11 08:13:23;;;;;;;20.83;13.70;;;;;;;;;;5052963;28;20188;-83
2023/10/11 08:15:58;;;;;;;20.83;13.53;;;;;;;;;;5037218;28;20180;-82
2023/10/11 08:18:28;;;;;;;22.27;13.53;;;;;;;;;;5050920;28;20187;-83
2023/10/11 08:20:54;;;;;;;18.67;13.13;;;;;;;;;;5057146;28;20261;-84
2023/10/11 08:23:29;;;;;;;18.97;13.97;;;;;;;;;;5039665;28;20179;-84
2023/10/11 08:25:56;;;;;;;18.40;13.97;;;;;;;;;;5041199;28;20218;-83
2023/10/11 08:28:28;;;;;;;19.30;13.87;;;;;;;;;;5039917;28;20206;-83
2023/10/11 08:30:57;;;;;;;24.03;13.83;;;;;;;;;;5040583;28;20245;-83
2023/10/11 08:33:25;;;;;;;18.70;13.50;;;;;;;;;;5036523;28;20192;-83
2023/10/11 08:35:53;;;;;;;20.23;14.10;;;;;;;;;;5036563;28;20192;-83
2023/10/11 08:38:24;;;;;;;21.60;14.67;;;;;;;;;;5036130;28;20172;-83
2023/10/11 08:40:57;;;;;;;19.70;14.13;;;;;;;;;;5036759;28;20187;-84
2023/10/11 08:43:23;;;;;;;24.67;15.07;;;;;;;;;;5049316;28;20270;-83
2023/10/11 08:45:59;;;;;;;20.67;14.80;;;;;;;;;;5039530;28;20250;-83
2023/10/11 08:48:26;;;;;;;23.43;15.70;;;;;;;;;;5056426;28;20231;-83
2023/10/11 08:50:56;;;;;;;22.40;15.60;;;;;;;;;;5056040;28;20190;-82
2023/10/11 08:53:26;;;;;;;21.70;15.03;;;;;;;;;;5050762;28;20183;-82
2023/10/11 08:55:58;;;;;;;24.93;15.93;;;;;;;;;;5060149;28;20189;-82
2023/10/11 08:58:27;;;;;;;23.97;15.53;;;;;;;;;;5059267;28;20176;-83
2023/10/11 09:00:55;;;;;;;31.30;17.70;;;;;;;;;;5040320;28;20184;-83
2023/10/11 09:03:31;;;;;;;26.60;18.63;;;;;;;;;;5040363;28;20172;-82
2023/10/11 09:06:00;;;;;;;27.47;17.40;;;;;;;;;;5024611;28;20237;-82
2023/10/11 09:08:31;;;;;;;25.00;18.07;;;;;;;;;;5024040;28;20183;-82
2023/10/11 09:11:15;;;;;;;23.20;18.67;;;;;;;;;;5040245;28;20184;-83
2023/10/11 09:13:42;;;;;;;24.67;19.47;;;;;;;;;;5040230;28;20175;-83
2023/10/11 09:16:12;;;;;;;31.67;20.40;;;;;;;;;;5039871;28;20248;-83
2023/10/11 09:18:38;;;;;;;26.73;20.40;;;;;;;;;;5059931;28;20186;-83
2023/10/11 09:21:15;;;;;;;25.50;20.00;;;;;;;;;;5058811;28;20187;-83
2023/10/11 09:23:49;;;;;;;26.20;19.80;;;;;;;;;;5056739;28;20232;-83
2023/10/11 09:26:32;;;;;;;28.00;20.47;;;;;;;;;;5056303;28;20203;-83
2023/10/11 09:29:02;;;;;;;33.43;20.97;;;;;;;;;;5056530;28;20180;-83
2023/10/11 09:31:30;;;;;;;29.73;20.87;;;;;;;;;;5056981;28;20187;-84
2023/10/11 09:34:02;;;;;;;32.87;21.50;;;;;;;;;;5056272;28;20215;-84
2023/10/11 09:36:28;;;;;;;27.33;21.03;;;;;;;;;;5059008;28;20203;-84
2023/10/11 09:39:04;;;;;;;27.63;21.50;;;;;;;;;;5058223;28;20182;-84
2023/10/11 09:41:53;;;;;;;30.93;20.83;;;;;;;;;;5059501;28;20187;-84
2023/10/11 09:44:26;;;;;;;31.33;22.23;;;;;;;;;;5044140;28;20228;-84
2023/10/11 09:46:57;;;;;;;33.47;21.93;;;;;;;;;;5058404;28;20219;-84
2023/10/11 09:49:26;;;;;;;33.60;22.47;;;;;;;;;;5063330;28;20201;-84
2023/10/11 09:51:53;;;;;;;32.70;23.63;;;;;;;;;;5058777;28;20182;-84
2023/10/11 09:54:20;;;;;;;29.90;23.57;;;;;;;;;;5057180;28;20186;-84
2023/10/11 09:56:49;;;;;;;32.37;23.03;;;;;;;;;;5071226;28;20191;-84
2023/10/11 09:59:34;;;;;;;36.37;24.83;;;;;;;;;;5059189;28;20181;-84
2023/10/11 10:02:07;;;;;;;34.40;23.83;;;;;;;;;;5055033;28;20193;-86
2023/10/11 10:04:51;;;;;;;32.30;24.13;;;;;;;;;;5059295;28;20187;-84
2023/10/11 10:10:06;;;;;;;36.43;24.77;;;;;;;;;;5071494;28;20183;-83
2023/10/11 10:12:43;;;;;;;40.37;24.77;;;;;;;;;;5042218;28;20191;-84
2023/10/11 10:15:13;;;;;;;36.30;23.97;;;;;;;;;;5058905;28;20244;-84
2023/10/11 10:18:12;;;;;;;33.13;24.63;;;;;;;;;;5058357;28;20247;-83
2023/10/11 10:20:42;;;;;;;33.47;23.80;;;;;;;;;;5050726;28;20216;-84
2023/10/11 10:23:16;;;;;;;38.37;25.07;;;;;;;;;;5046370;28;20191;-84
2023/10/11 10:25:46;;;;;;;35.80;24.10;;;;;;;;;;5045938;28;20186;-85
2023/10/11 10:28:31;;;;;;;35.93;25.00;;;;;;;;;;5058301;28;20187;-84
2023/10/11 10:31:04;;;;;;;33.77;25.20;;;;;;;;;;5063193;28;20182;-84
2023/10/11 10:33:35;;;;;;;36.60;24.80;;;;;;;;;;5058391;28;20210;-84
2023/10/11 10:36:21;;;;;;;34.70;24.83;;;;;;;;;;5058733;28;20207;-84
2023/10/11 10:38:56;;;;;;;34.50;25.47;;;;;;;;;;5048159;28;20188;-84
2023/10/11 10:41:25;;;;;;;41.30;24.97;;;;;;;;;;5050654;28;20251;-84
2023/10/11 10:44:11;;;;;;;38.40;26.70;;;;;;;;;;5042233;28;20195;-84
2023/10/11 10:46:53;;;;;;;35.27;25.50;;;;;;;;;;5050364;28;20254;-84
2023/10/11 10:49:23;;;;;;;43.53;26.07;;;;;;;;;;5058095;28;20176;-84
2023/10/11 10:51:49;;;;;;;39.53;24.97;;;;;;;;;;5038658;28;20192;-84
2023/10/11 10:54:25;;;;;;;38.07;25.80;;;;;;;;;;5057881;28;20179;-84
2023/10/11 10:56:57;;;;;;;37.80;25.33;;;;;;;;;;5042600;28;20195;-84
2023/10/11 10:59:26;;;;;;;39.63;25.53;;;;;;;;;;5054809;28;20270;-84
2023/10/11 11:01:55;;;;;;;36.90;24.57;;;;;;;;;;5038109;28;20202;-84
2023/10/11 11:04:28;;;;;;;39.17;24.57;;;;;;;;;;5038043;28;20191;-84
2023/10/11 11:06:55;;;;;;;34.90;25.03;;;;;;;;;;5037901;28;20218;-84
2023/10/11 11:09:29;;;;;;;39.07;24.57;;;;;;;;;;5037724;28;20184;-85
2023/10/11 11:12:14;;;;;;;37.43;25.03;;;;;;;;;;5054141;28;20262;-85
2023/10/11 11:14:54;;;;;;;34.97;24.23;;;;;;;;;;5053890;28;20183;-85
2023/10/11 11:17:20;;;;;;;34.80;24.00;;;;;;;;;;5053215;28;20426;-84
2023/10/11 11:20:13;;;;;;;38.97;24.53;;;;;;;;;;5044728;28;20180;-85
2023/10/11 11:22:40;;;;;;;37.47;24.73;;;;;;;;;;5041821;28;20195;-86
2023/10/11 11:25:16;;;;;;;33.73;22.90;;;;;;;;;;5057474;28;20175;-85
2023/10/11 11:27:43;;;;;;;35.07;22.93;;;;;;;;;;5057384;28;20207;-85
2023/10/11 11:30:33;;;;;;;36.13;23.23;;;;;;;;;;5057707;28;20172;-84
2023/10/11 11:32:59;;;;;;;32.63;22.00;;;;;;;;;;5039884;28;20187;-84
2023/10/11 11:35:29;;;;;;;33.00;22.70;;;;;;;;;;5057109;28;20203;-84
2023/10/11 11:38:01;;;;;;;30.37;20.37;;;;;;;;;;5057203;28;20187;-85
2023/10/11 11:40:27;;;;;;;31.37;20.70;;;;;;;;;;5057229;28;20175;-85
2023/10/11 11:43:00;;;;;;;30.37;21.20;;;;;;;;;;5040391;28;20194;-84
2023/10/11 11:45:29;;;;;;;30.37;19.33;;;;;;;;;;5057198;28;20234;-85
2023/10/11 11:47:58;;;;;;;28.07;19.83;;;;;;;;;;5057443;28;20210;-85
2023/10/11 11:50:36;;;;;;;28.43;19.43;;;;;;;;;;5056754;28;20197;-85
2023/10/11 11:53:05;;;;;;;29.57;20.40;;;;;;;;;;5056020;28;20408;-85
2023/10/11 11:55:34;;;;;;;28.30;18.33;;;;;;;;;;5057184;28;20414;-85
2023/10/11 11:58:10;;;;;;;22.77;17.10;;;;;;;;;;5047943;28;20188;-84
2023/10/11 12:00:39;;;;;;;23.63;15.53;;;;;;;;;;5036860;28;20195;-85
2023/10/11 12:03:05;;;;;;;25.45;16.75;;;;;;;;;;5021871;28;20424;-84
2023/10/11 12:05:40;;;;;;;27.83;16.17;;;;;;;;;;5056958;28;20175;-85
2023/10/11 12:08:20;;;;;;;21.77;15.30;;;;;;;;;;5045069;28;20240;-85
2023/10/11 12:10:49;;;;;;;19.93;14.03;;;;;;;;;;5056987;28;20175;-85
2023/10/11 12:13:26;;;;;;;22.80;14.63;;;;;;;;;;5056824;28;20398;-85
2023/10/11 12:15:54;;;;;;;23.45;15.23;;;;;;;;;;5047516;28;20462;-85
2023/10/11 12:18:23;;;;;;;21.97;14.50;;;;;;;;;;5052926;28;20176;-84
2023/10/11 12:20:50;;;;;;;24.70;15.87;;;;;;;;;;5019773;28;20466;-85
2023/10/11 12:23:18;;;;;;;23.40;14.83;;;;;;;;;;5053644;28;20175;-84
2023/10/11 12:25:47;;;;;;;24.83;15.10;;;;;;;;;;5056147;28;20463;-85
2023/10/11 12:28:14;;;;;;;21.20;14.20;;;;;;;;;;5055965;28;20180;-84
2023/10/11 12:30:44;;;;;;;28.00;14.50;;;;;;;;;;5053008;28;20187;-84
2023/10/11 12:33:10;;;;;;;23.67;13.70;;;;;;;;;;5045186;28;20187;-84
2023/10/11 12:35:39;;;;;;;19.03;13.50;;;;;;;;;;5056319;28;20191;-85
2023/10/11 12:38:06;;;;;;;19.33;13.27;;;;;;;;;;5043234;28;20191;-84
2023/10/11 12:40:34;;;;;;;20.27;13.50;;;;;;;;;;5056099;28;20186;-84
2023/10/11 12:43:03;;;;;;;21.83;13.13;;;;;;;;;;5060769;28;20195;-85
2023/10/11 12:45:29;;;;;;;21.77;13.70;;;;;;;;;;5053362;28;20234;-86
2023/10/11 12:47:55;;;;;;;22.37;13.77;;;;;;;;;;5052263;28;20211;-85
2023/10/11 12:50:21;;;;;;;21.03;13.43;;;;;;;;;;5047836;28;20194;-84
2023/10/11 12:52:52;;;;;;;24.97;15.03;;;;;;;;;;5043912;28;20251;-84
2023/10/11 12:55:20;;;;;;;22.30;15.20;;;;;;;;;;5044323;28;20195;-84
2023/10/11 12:57:48;;;;;;;25.13;15.27;;;;;;;;;;5040148;28;20187;-84
2023/10/11 13:00:31;;;;;;;19.67;14.80;;;;;;;;;;5053216;28;20287;-84
2023/10/11 13:03:15;;;;;;;24.63;16.07;;;;;;;;;;5053346;28;20190;-85
2023/10/11 13:05:43;;;;;;;22.40;16.37;;;;;;;;;;5034896;28;20199;-84
2023/10/11 13:08:11;;;;;;;24.77;17.37;;;;;;;;;;5039568;28;20215;-83
2023/10/11 13:10:45;;;;;;;26.07;16.73;;;;;;;;;;5045267;28;20186;-84
2023/10/11 13:13:11;;;;;;;25.03;16.80;;;;;;;;;;5052499;28;20222;-83
2023/10/11 13:15:39;;;;;;;24.47;16.67;;;;;;;;;;5052585;28;20172;-84
2023/10/11 13:18:09;;;;;;;24.23;17.13;;;;;;;;;;5053024;28;20176;-84
2023/10/11 13:20:36;;;;;;;25.93;18.80;;;;;;;;;;5052495;28;20180;-83
2023/10/11 13:23:02;;;;;;;28.43;19.43;;;;;;;;;;5033276;28;20282;-84
2023/10/11 13:25:28;;;;;;;29.57;21.00;;;;;;;;;;5056129;28;20262;-84
2023/10/11 13:27:55;;;;;;;31.80;20.90;;;;;;;;;;5036506;28;20216;-84
2023/10/11 13:30:27;;;;;;;30.77;21.27;;;;;;;;;;5026925;28;20191;-84
2023/10/11 13:32:57;;;;;;;31.33;22.60;;;;;;;;;;5035796;28;20242;-85
2023/10/11 13:35:26;;;;;;;28.07;22.60;;;;;;;;;;5036156;28;20200;-85
2023/10/11 13:37:53;;;;;;;32.57;23.67;;;;;;;;;;5036420;28;20188;-84
2023/10/11 13:40:25;;;;;;;30.43;23.37;;;;;;;;;;5039311;28;20186;-83
2023/10/11 13:42:51;;;;;;;34.80;23.93;;;;;;;;;;5039319;28;20184;-85
2023/10/11 13:45:17;;;;;;;35.53;24.97;;;;;;;;;;5022694;28;20242;-84
2023/10/11 13:47:51;;;;;;;33.77;24.17;;;;;;;;;;5039471;28;20294;-84
2023/10/11 13:50:21;;;;;;;33.97;25.53;;;;;;;;;;5053931;28;20181;-85
2023/10/11 13:52:51;;;;;;;35.83;24.97;;;;;;;;;;5043965;28;20255;-84
2023/10/11 13:55:25;;;;;;;35.67;25.50;;;;;;;;;;5072372;28;20229;-84
2023/10/11 13:57:55;;;;;;;33.87;25.23;;;;;;;;;;5045114;28;20250;-84
2023/10/11 14:05:45;;;;;;;37.33;25.17;;;;;;;;;;5076938;28;20179;-85
2023/10/11 14:08:40;;;;;;;31.87;24.90;;;;;;;;;;5058733;28;20207;-84
2023/10/11 14:11:07;;;;;;;34.37;25.93;;;;;;;;;;5045978;28;20187;-86
2023/10/11 14:13:34;;;;;;;33.10;26.00;;;;;;;;;;5059037;28;20258;-85
2023/10/11 14:16:04;;;;;;;36.30;25.90;;;;;;;;;;5058882;28;20175;-85
2023/10/11 14:18:32;;;;;;;34.57;27.00;;;;;;;;;;5023378;28;20184;-85
2023/10/11 14:21:00;;;;;;;32.57;26.20;;;;;;;;;;5057511;28;20179;-85
2023/10/11 14:23:27;;;;;;;37.57;26.20;;;;;;;;;;5056767;28;20202;-85
2023/10/11 14:26:04;;;;;;;34.87;27.90;;;;;;;;;;5057992;28;20211;-84
2023/10/11 14:28:30;;;;;;;37.93;27.73;;;;;;;;;;5058759;28;20209;-84
2023/10/11 14:30:59;;;;;;;30.20;27.03;;;;;;;;;;5042081;28;20179;-84
2023/10/11 14:33:25;;;;;;;30.70;26.93;;;;;;;;;;5054739;28;20229;-84
2023/10/11 14:35:51;;;;;;;34.37;27.07;;;;;;;;;;5041794;28;20203;-84
2023/10/11 14:38:20;;;;;;;37.73;28.37;;;;;;;;;;5041545;28;20225;-84
2023/10/11 14:40:48;;;;;;;36.67;27.90;;;;;;;;;;5055647;28;20228;-84
2023/10/11 14:43:16;;;;;;;33.60;27.63;;;;;;;;;;5037995;28;20176;-85
2023/10/11 14:45:47;;;;;;;33.80;28.67;;;;;;;;;;5028925;28;20229;-84
2023/10/11 14:48:13;;;;;;;38.33;28.13;;;;;;;;;;5031851;28;20201;-84
2023/10/11 14:50:42;;;;;;;33.53;27.80;;;;;;;;;;5014229;28;20177;-84
2023/10/11 14:53:13;;;;;;;36.70;27.93;;;;;;;;;;5031625;28;20251;-85
2023/10/11 14:55:39;;;;;;;34.53;28.07;;;;;;;;;;5031761;28;20169;-85
2023/10/11 14:58:05;;;;;;;33.50;26.50;;;;;;;;;;5037995;28;20252;-84
2023/10/11 15:00:34;;;;;;;34.87;26.97;;;;;;;;;;5050901;28;20264;-84
2023/10/11 15:03:04;;;;;;;32.27;26.93;;;;;;;;;;5051357;28;20177;-85
2023/10/11 15:05:37;;;;;;;33.73;25.13;;;;;;;;;;5050957;28;20184;-85
2023/10/11 15:08:06;;;;;;;33.60;25.57;;;;;;;;;;5051293;28;20232;-85
2023/10/11 15:10:35;;;;;;;32.57;24.87;;;;;;;;;;5047445;28;20185;-84
2023/10/11 15:13:03;;;;;;;31.80;23.97;;;;;;;;;;5015455;28;20247;-84
2023/10/11 15:15:32;;;;;;;29.63;24.30;;;;;;;;;;5030847;28;20201;-84
2023/10/11 15:18:01;;;;;;;28.60;22.03;;;;;;;;;;5048127;28;20188;-83
2023/10/11 15:20:30;;;;;;;27.50;22.90;;;;;;;;;;5034956;28;20267;-83
2023/10/11 15:22:56;;;;;;;33.47;24.20;;;;;;;;;;5041103;28;20205;-84
2023/10/11 15:25:22;;;;;;;35.20;22.80;;;;;;;;;;5014502;28;20185;-83
2023/10/11 15:27:49;;;;;;;28.73;22.17;;;;;;;;;;5030786;28;20209;-83
2023/10/11 15:30:15;;;;;;;30.83;21.83;;;;;;;;;;5030314;28;20188;-83
2023/10/11 15:32:41;;;;;;;29.07;21.43;;;;;;;;;;5031005;28;20185;-83